sensor_id;sensor_type;location;lat;lon;timestamp;P1;durP1;ratioP1;P2;durP2;ratioP2
1262;SDS011;62267;50.112;8.704;2023-06-26T00:01:20;11.70;;;10.70;;
1262;SDS011;62267;50.112;8.704;2023-06-26T00:03:48;11.90;;;10.70;;
1262;SDS011;62267;50.112;8.704;2023-06-26T00:06:15;11.60;;;10.47;;
1262;SDS011;62267;50.112;8.704;2023-06-26T00:08:42;11.80;;;10.80;;
1262;SDS011;62267;50.112;8.704;2023-06-26T00:11:11;12.17;;;11.07;;
1262;SDS011;62267;50.112;8.704;2023-06-26T00:13:39;11.20;;;10.10;;
1262;SDS011;62267;50.112;8.704;2023-06-26T00:16:07;11.20;;;10.20;;
1262;SDS011;62267;50.112;8.704;2023-06-26T00:18:34;11.70;;;10.50;;
1262;SDS011;62267;50.112;8.704;2023-06-26T00:21:02;11.30;;;10.20;;
1262;SDS011;62267;50.112;8.704;2023-06-26T00:23:30;11.30;;;10.20;;
1262;SDS011;62267;50.112;8.704;2023-06-26T00:26:00;11.83;;;10.67;;
1262;SDS011;62267;50.112;8.704;2023-06-26T00:28:27;10.63;;;9.53;;
1262;SDS011;62267;50.112;8.704;2023-06-26T00:30:56;12.30;;;11.20;;
1262;SDS011;62267;50.112;8.704;2023-06-26T00:33:23;11.73;;;10.53;;
1262;SDS011;62267;50.112;8.704;2023-06-26T00:35:52;11.30;;;10.13;;
1262;SDS011;62267;50.112;8.704;2023-06-26T00:38:20;10.70;;;9.70;;
1262;SDS011;62267;50.112;8.704;2023-06-26T00:40:47;11.50;;;10.50;;
1262;SDS011;62267;50.112;8.704;2023-06-26T00:43:17;12.50;;;11.30;;
1262;SDS011;62267;50.112;8.704;2023-06-26T00:45:44;11.87;;;10.80;;
1262;SDS011;62267;50.112;8.704;2023-06-26T00:48:12;11.40;;;10.30;;
1262;SDS011;62267;50.112;8.704;2023-06-26T00:50:41;12.67;;;11.43;;
1262;SDS011;62267;50.112;8.704;2023-06-26T00:53:09;10.97;;;9.83;;
1262;SDS011;62267;50.112;8.704;2023-06-26T00:55:37;10.47;;;9.67;;
1262;SDS011;62267;50.112;8.704;2023-06-26T00:58:04;11.60;;;10.50;;
1262;SDS011;62267;50.112;8.704;2023-06-26T01:00:32;11.53;;;10.33;;
1262;SDS011;62267;50.112;8.704;2023-06-26T01:03:00;11.67;;;10.60;;
1262;SDS011;62267;50.112;8.704;2023-06-26T01:05:28;11.50;;;10.50;;
1262;SDS011;62267;50.112;8.704;2023-06-26T01:07:56;12.97;;;11.77;;
1262;SDS011;62267;50.112;8.704;2023-06-26T01:10:24;12.47;;;11.27;;
1262;SDS011;62267;50.112;8.704;2023-06-26T01:12:55;14.20;;;12.80;;
1262;SDS011;62267;50.112;8.704;2023-06-26T01:15:22;12.70;;;11.40;;
1262;SDS011;62267;50.112;8.704;2023-06-26T01:17:51;12.20;;;11.00;;
1262;SDS011;62267;50.112;8.704;2023-06-26T01:20:18;12.73;;;11.53;;
1262;SDS011;62267;50.112;8.704;2023-06-26T01:27:49;13.10;;;11.97;;
1262;SDS011;62267;50.112;8.704;2023-06-26T01:30:18;14.17;;;12.90;;
1262;SDS011;62267;50.112;8.704;2023-06-26T01:32:46;13.20;;;12.00;;
1262;SDS011;62267;50.112;8.704;2023-06-26T01:35:15;13.57;;;12.37;;
1262;SDS011;62267;50.112;8.704;2023-06-26T01:37:42;13.00;;;11.73;;
1262;SDS011;62267;50.112;8.704;2023-06-26T01:40:10;12.77;;;11.67;;
1262;SDS011;62267;50.112;8.704;2023-06-26T01:42:38;13.10;;;12.00;;
1262;SDS011;62267;50.112;8.704;2023-06-26T01:45:07;13.33;;;12.10;;
1262;SDS011;62267;50.112;8.704;2023-06-26T01:47:37;13.23;;;11.93;;
1262;SDS011;62267;50.112;8.704;2023-06-26T01:50:11;13.23;;;12.00;;
1262;SDS011;62267;50.112;8.704;2023-06-26T01:53:02;11.80;;;10.10;;
1262;SDS011;62267;50.112;8.704;2023-06-26T01:55:32;11.87;;;10.87;;
1262;SDS011;62267;50.112;8.704;2023-06-26T01:58:03;12.77;;;11.60;;
1262;SDS011;62267;50.112;8.704;2023-06-26T02:00:31;12.47;;;11.30;;
1262;SDS011;62267;50.112;8.704;2023-06-26T02:02:59;13.23;;;11.97;;
1262;SDS011;62267;50.112;8.704;2023-06-26T02:05:28;13.73;;;12.43;;
1262;SDS011;62267;50.112;8.704;2023-06-26T02:07:59;13.33;;;12.13;;
1262;SDS011;62267;50.112;8.704;2023-06-26T02:10:29;13.30;;;12.00;;
1262;SDS011;62267;50.112;8.704;2023-06-26T02:12:59;13.57;;;12.37;;
1262;SDS011;62267;50.112;8.704;2023-06-26T02:15:27;12.97;;;11.60;;
1262;SDS011;62267;50.112;8.704;2023-06-26T02:17:55;12.73;;;11.63;;
1262;SDS011;62267;50.112;8.704;2023-06-26T02:20:22;12.57;;;11.37;;
1262;SDS011;62267;50.112;8.704;2023-06-26T02:22:50;12.97;;;11.70;;
1262;SDS011;62267;50.112;8.704;2023-06-26T02:25:17;13.60;;;12.43;;
1262;SDS011;62267;50.112;8.704;2023-06-26T02:27:45;14.10;;;12.90;;
1262;SDS011;62267;50.112;8.704;2023-06-26T02:30:12;13.90;;;12.80;;
1262;SDS011;62267;50.112;8.704;2023-06-26T02:32:41;13.47;;;12.20;;
1262;SDS011;62267;50.112;8.704;2023-06-26T02:35:09;12.63;;;11.53;;
1262;SDS011;62267;50.112;8.704;2023-06-26T02:37:41;13.37;;;12.00;;
1262;SDS011;62267;50.112;8.704;2023-06-26T02:40:08;13.87;;;12.47;;
1262;SDS011;62267;50.112;8.704;2023-06-26T02:42:39;13.60;;;12.30;;
1262;SDS011;62267;50.112;8.704;2023-06-26T02:45:07;13.17;;;11.80;;
1262;SDS011;62267;50.112;8.704;2023-06-26T02:47:35;13.43;;;12.07;;
1262;SDS011;62267;50.112;8.704;2023-06-26T02:50:08;11.77;;;10.67;;
1262;SDS011;62267;50.112;8.704;2023-06-26T02:52:55;13.33;;;12.13;;
1262;SDS011;62267;50.112;8.704;2023-06-26T02:55:23;13.13;;;12.03;;
1262;SDS011;62267;50.112;8.704;2023-06-26T02:57:52;13.87;;;12.60;;
1262;SDS011;62267;50.112;8.704;2023-06-26T03:00:20;13.07;;;11.73;;
1262;SDS011;62267;50.112;8.704;2023-06-26T03:02:49;13.10;;;11.80;;
1262;SDS011;62267;50.112;8.704;2023-06-26T03:05:19;12.70;;;11.60;;
1262;SDS011;62267;50.112;8.704;2023-06-26T03:07:47;13.87;;;12.60;;
1262;SDS011;62267;50.112;8.704;2023-06-26T03:10:15;13.83;;;12.57;;
1262;SDS011;62267;50.112;8.704;2023-06-26T03:12:43;13.73;;;12.43;;
1262;SDS011;62267;50.112;8.704;2023-06-26T03:15:10;13.40;;;12.10;;
1262;SDS011;62267;50.112;8.704;2023-06-26T03:17:38;13.50;;;12.20;;
1262;SDS011;62267;50.112;8.704;2023-06-26T03:20:10;13.23;;;12.13;;
1262;SDS011;62267;50.112;8.704;2023-06-26T03:22:51;14.43;;;13.03;;
1262;SDS011;62267;50.112;8.704;2023-06-26T03:25:19;12.80;;;11.50;;
1262;SDS011;62267;50.112;8.704;2023-06-26T03:27:48;15.17;;;13.40;;
1262;SDS011;62267;50.112;8.704;2023-06-26T03:30:17;13.00;;;11.80;;
1262;SDS011;62267;50.112;8.704;2023-06-26T03:32:48;13.53;;;12.33;;
1262;SDS011;62267;50.112;8.704;2023-06-26T03:35:16;13.33;;;12.23;;
1262;SDS011;62267;50.112;8.704;2023-06-26T03:37:46;14.10;;;12.90;;
1262;SDS011;62267;50.112;8.704;2023-06-26T03:40:13;13.97;;;12.57;;
1262;SDS011;62267;50.112;8.704;2023-06-26T03:42:41;21.53;;;13.90;;
1262;SDS011;62267;50.112;8.704;2023-06-26T03:45:09;14.40;;;13.00;;
1262;SDS011;62267;50.112;8.704;2023-06-26T03:47:37;13.47;;;12.07;;
1262;SDS011;62267;50.112;8.704;2023-06-26T03:50:04;14.20;;;12.70;;
1262;SDS011;62267;50.112;8.704;2023-06-26T03:52:32;16.03;;;11.87;;
1262;SDS011;62267;50.112;8.704;2023-06-26T03:55:00;18.93;;;12.30;;
1262;SDS011;62267;50.112;8.704;2023-06-26T03:57:28;17.67;;;13.27;;
1262;SDS011;62267;50.112;8.704;2023-06-26T03:59:56;14.57;;;12.80;;
1262;SDS011;62267;50.112;8.704;2023-06-26T04:02:23;13.67;;;12.47;;
1262;SDS011;62267;50.112;8.704;2023-06-26T04:04:53;13.17;;;11.87;;
1262;SDS011;62267;50.112;8.704;2023-06-26T04:07:21;14.03;;;12.63;;
1262;SDS011;62267;50.112;8.704;2023-06-26T04:09:49;14.50;;;13.10;;
1262;SDS011;62267;50.112;8.704;2023-06-26T04:12:16;13.83;;;12.60;;
1262;SDS011;62267;50.112;8.704;2023-06-26T04:14:44;15.67;;;13.03;;
1262;SDS011;62267;50.112;8.704;2023-06-26T04:17:11;13.97;;;12.23;;
1262;SDS011;62267;50.112;8.704;2023-06-26T04:19:38;14.10;;;12.70;;
1262;SDS011;62267;50.112;8.704;2023-06-26T04:22:06;17.63;;;13.13;;
1262;SDS011;62267;50.112;8.704;2023-06-26T04:24:33;19.20;;;13.07;;
1262;SDS011;62267;50.112;8.704;2023-06-26T04:27:00;20.63;;;13.73;;
1262;SDS011;62267;50.112;8.704;2023-06-26T04:29:28;17.50;;;13.30;;
1262;SDS011;62267;50.112;8.704;2023-06-26T04:31:56;23.20;;;15.00;;
1262;SDS011;62267;50.112;8.704;2023-06-26T04:34:25;25.23;;;14.73;;
1262;SDS011;62267;50.112;8.704;2023-06-26T04:36:53;20.73;;;15.10;;
1262;SDS011;62267;50.112;8.704;2023-06-26T04:39:21;18.00;;;15.07;;
1262;SDS011;62267;50.112;8.704;2023-06-26T04:41:48;21.50;;;15.57;;
1262;SDS011;62267;50.112;8.704;2023-06-26T04:44:16;22.37;;;16.70;;
1262;SDS011;62267;50.112;8.704;2023-06-26T04:46:44;21.30;;;16.20;;
1262;SDS011;62267;50.112;8.704;2023-06-26T04:49:11;16.67;;;14.40;;
1262;SDS011;62267;50.112;8.704;2023-06-26T04:51:39;17.20;;;14.23;;
1262;SDS011;62267;50.112;8.704;2023-06-26T04:54:07;19.33;;;14.27;;
1262;SDS011;62267;50.112;8.704;2023-06-26T04:56:35;15.90;;;14.30;;
1262;SDS011;62267;50.112;8.704;2023-06-26T04:59:04;17.27;;;13.47;;
1262;SDS011;62267;50.112;8.704;2023-06-26T05:01:31;21.50;;;14.50;;
1262;SDS011;62267;50.112;8.704;2023-06-26T05:04:01;19.00;;;14.00;;
1262;SDS011;62267;50.112;8.704;2023-06-26T05:06:28;16.20;;;12.17;;
1262;SDS011;62267;50.112;8.704;2023-06-26T05:08:56;35.60;;;15.23;;
1262;SDS011;62267;50.112;8.704;2023-06-26T05:11:24;34.37;;;16.83;;
1262;SDS011;62267;50.112;8.704;2023-06-26T05:13:52;25.03;;;15.00;;
1262;SDS011;62267;50.112;8.704;2023-06-26T05:16:19;18.13;;;13.43;;
1262;SDS011;62267;50.112;8.704;2023-06-26T05:18:47;24.83;;;13.03;;
1262;SDS011;62267;50.112;8.704;2023-06-26T05:21:15;22.03;;;13.27;;
1262;SDS011;62267;50.112;8.704;2023-06-26T05:23:43;16.00;;;12.80;;
1262;SDS011;62267;50.112;8.704;2023-06-26T05:26:12;20.80;;;13.80;;
1262;SDS011;62267;50.112;8.704;2023-06-26T05:28:40;14.80;;;11.93;;
1262;SDS011;62267;50.112;8.704;2023-06-26T05:31:11;13.93;;;12.53;;
1262;SDS011;62267;50.112;8.704;2023-06-26T05:33:38;14.47;;;12.50;;
1262;SDS011;62267;50.112;8.704;2023-06-26T05:36:06;14.50;;;13.00;;
1262;SDS011;62267;50.112;8.704;2023-06-26T05:38:34;16.27;;;13.80;;
1262;SDS011;62267;50.112;8.704;2023-06-26T05:41:01;12.90;;;11.60;;
1262;SDS011;62267;50.112;8.704;2023-06-26T05:43:29;13.30;;;12.10;;
1262;SDS011;62267;50.112;8.704;2023-06-26T05:45:57;12.97;;;11.70;;
1262;SDS011;62267;50.112;8.704;2023-06-26T05:48:25;14.00;;;12.20;;
1262;SDS011;62267;50.112;8.704;2023-06-26T05:50:54;13.67;;;12.27;;
1262;SDS011;62267;50.112;8.704;2023-06-26T05:53:22;13.57;;;12.27;;
1262;SDS011;62267;50.112;8.704;2023-06-26T05:55:49;15.13;;;12.80;;
1262;SDS011;62267;50.112;8.704;2023-06-26T05:58:16;14.13;;;12.73;;
1262;SDS011;62267;50.112;8.704;2023-06-26T06:00:45;16.77;;;13.30;;
1262;SDS011;62267;50.112;8.704;2023-06-26T06:03:14;12.40;;;11.20;;
1262;SDS011;62267;50.112;8.704;2023-06-26T06:05:44;13.87;;;12.60;;
1262;SDS011;62267;50.112;8.704;2023-06-26T06:08:12;15.60;;;14.00;;
1262;SDS011;62267;50.112;8.704;2023-06-26T06:10:40;15.33;;;13.80;;
1262;SDS011;62267;50.112;8.704;2023-06-26T06:13:07;15.23;;;13.63;;
1262;SDS011;62267;50.112;8.704;2023-06-26T06:15:35;14.57;;;13.00;;
1262;SDS011;62267;50.112;8.704;2023-06-26T06:18:03;13.83;;;12.50;;
1262;SDS011;62267;50.112;8.704;2023-06-26T06:20:31;15.00;;;13.40;;
1262;SDS011;62267;50.112;8.704;2023-06-26T06:22:58;13.63;;;12.23;;
1262;SDS011;62267;50.112;8.704;2023-06-26T06:25:25;19.00;;;14.50;;
1262;SDS011;62267;50.112;8.704;2023-06-26T06:27:53;12.90;;;11.70;;
1262;SDS011;62267;50.112;8.704;2023-06-26T06:30:21;14.20;;;12.80;;
1262;SDS011;62267;50.112;8.704;2023-06-26T06:33:08;13.43;;;12.13;;
1262;SDS011;62267;50.112;8.704;2023-06-26T06:35:35;14.30;;;13.00;;
1262;SDS011;62267;50.112;8.704;2023-06-26T06:38:03;15.70;;;14.30;;
1262;SDS011;62267;50.112;8.704;2023-06-26T06:40:31;14.57;;;13.17;;
1262;SDS011;62267;50.112;8.704;2023-06-26T06:42:58;14.70;;;13.30;;
1262;SDS011;62267;50.112;8.704;2023-06-26T06:45:26;14.93;;;13.50;;
1262;SDS011;62267;50.112;8.704;2023-06-26T06:47:53;14.07;;;12.67;;
1262;SDS011;62267;50.112;8.704;2023-06-26T06:50:20;13.90;;;12.40;;
1262;SDS011;62267;50.112;8.704;2023-06-26T06:52:48;14.23;;;12.07;;
1262;SDS011;62267;50.112;8.704;2023-06-26T06:55:15;12.87;;;11.13;;
1262;SDS011;62267;50.112;8.704;2023-06-26T06:57:42;11.63;;;10.63;;
1262;SDS011;62267;50.112;8.704;2023-06-26T07:00:10;12.20;;;11.00;;
1262;SDS011;62267;50.112;8.704;2023-06-26T07:02:38;11.40;;;10.40;;
1262;SDS011;62267;50.112;8.704;2023-06-26T07:05:06;12.30;;;11.20;;
1262;SDS011;62267;50.112;8.704;2023-06-26T07:07:34;13.20;;;11.43;;
1262;SDS011;62267;50.112;8.704;2023-06-26T07:12:32;11.63;;;10.30;;
1262;SDS011;62267;50.112;8.704;2023-06-26T07:15:00;12.70;;;11.50;;
1262;SDS011;62267;50.112;8.704;2023-06-26T07:17:28;14.60;;;11.17;;
1262;SDS011;62267;50.112;8.704;2023-06-26T07:19:55;14.50;;;11.73;;
1262;SDS011;62267;50.112;8.704;2023-06-26T07:22:23;12.07;;;10.97;;
1262;SDS011;62267;50.112;8.704;2023-06-26T07:24:50;12.03;;;10.93;;
1262;SDS011;62267;50.112;8.704;2023-06-26T07:27:17;12.60;;;10.60;;
1262;SDS011;62267;50.112;8.704;2023-06-26T07:29:45;11.20;;;10.20;;
1262;SDS011;62267;50.112;8.704;2023-06-26T07:32:13;12.70;;;11.50;;
1262;SDS011;62267;50.112;8.704;2023-06-26T07:34:41;12.77;;;11.57;;
1262;SDS011;62267;50.112;8.704;2023-06-26T07:37:08;12.23;;;10.80;;
1262;SDS011;62267;50.112;8.704;2023-06-26T07:39:35;12.57;;;11.33;;
1262;SDS011;62267;50.112;8.704;2023-06-26T07:42:03;13.60;;;11.63;;
1262;SDS011;62267;50.112;8.704;2023-06-26T07:44:30;12.23;;;11.03;;
1262;SDS011;62267;50.112;8.704;2023-06-26T07:46:57;11.73;;;10.53;;
1262;SDS011;62267;50.112;8.704;2023-06-26T07:49:25;12.60;;;11.40;;
1262;SDS011;62267;50.112;8.704;2023-06-26T07:51:52;11.73;;;10.63;;
1262;SDS011;62267;50.112;8.704;2023-06-26T07:54:19;12.50;;;11.10;;
1262;SDS011;62267;50.112;8.704;2023-06-26T07:59:23;12.30;;;11.10;;
1262;SDS011;62267;50.112;8.704;2023-06-26T08:01:51;12.20;;;10.10;;
1262;SDS011;62267;50.112;8.704;2023-06-26T08:04:19;10.50;;;9.50;;
1262;SDS011;62267;50.112;8.704;2023-06-26T08:06:47;13.80;;;11.50;;
1262;SDS011;62267;50.112;8.704;2023-06-26T08:09:16;11.13;;;9.90;;
1262;SDS011;62267;50.112;8.704;2023-06-26T08:11:44;11.97;;;10.47;;
1262;SDS011;62267;50.112;8.704;2023-06-26T08:14:11;11.40;;;10.30;;
1262;SDS011;62267;50.112;8.704;2023-06-26T08:16:39;11.57;;;10.20;;
1262;SDS011;62267;50.112;8.704;2023-06-26T08:19:07;10.60;;;9.60;;
1262;SDS011;62267;50.112;8.704;2023-06-26T08:21:34;10.73;;;9.83;;
1262;SDS011;62267;50.112;8.704;2023-06-26T08:24:04;13.30;;;9.77;;
1262;SDS011;62267;50.112;8.704;2023-06-26T08:26:31;11.47;;;9.80;;
1262;SDS011;62267;50.112;8.704;2023-06-26T08:28:59;12.17;;;9.37;;
1262;SDS011;62267;50.112;8.704;2023-06-26T08:31:26;11.20;;;10.07;;
1262;SDS011;62267;50.112;8.704;2023-06-26T08:33:53;19.40;;;10.80;;
1262;SDS011;62267;50.112;8.704;2023-06-26T08:36:20;15.10;;;10.27;;
1262;SDS011;62267;50.112;8.704;2023-06-26T08:38:48;15.33;;;10.27;;
1262;SDS011;62267;50.112;8.704;2023-06-26T08:41:15;12.50;;;10.77;;
1262;SDS011;62267;50.112;8.704;2023-06-26T08:43:42;10.70;;;9.80;;
1262;SDS011;62267;50.112;8.704;2023-06-26T08:46:09;9.73;;;8.93;;
1262;SDS011;62267;50.112;8.704;2023-06-26T08:48:41;11.60;;;10.50;;
1262;SDS011;62267;50.112;8.704;2023-06-26T08:51:09;11.30;;;10.20;;
1262;SDS011;62267;50.112;8.704;2023-06-26T08:56:40;11.53;;;10.53;;
1262;SDS011;62267;50.112;8.704;2023-06-26T08:59:09;12.53;;;10.30;;
1262;SDS011;62267;50.112;8.704;2023-06-26T09:01:40;11.20;;;10.10;;
1262;SDS011;62267;50.112;8.704;2023-06-26T09:04:08;11.93;;;10.73;;
1262;SDS011;62267;50.112;8.704;2023-06-26T09:06:35;13.63;;;11.00;;
1262;SDS011;62267;50.112;8.704;2023-06-26T09:09:03;12.50;;;9.90;;
1262;SDS011;62267;50.112;8.704;2023-06-26T09:11:30;13.07;;;11.23;;
1262;SDS011;62267;50.112;8.704;2023-06-26T09:13:57;11.30;;;10.03;;
1262;SDS011;62267;50.112;8.704;2023-06-26T09:16:25;12.63;;;9.90;;
1262;SDS011;62267;50.112;8.704;2023-06-26T09:18:55;11.17;;;10.10;;
1262;SDS011;62267;50.112;8.704;2023-06-26T09:21:22;12.67;;;11.30;;
1262;SDS011;62267;50.112;8.704;2023-06-26T09:23:50;10.67;;;9.50;;
1262;SDS011;62267;50.112;8.704;2023-06-26T09:26:21;11.30;;;10.20;;
1262;SDS011;62267;50.112;8.704;2023-06-26T09:28:48;11.67;;;10.40;;
1262;SDS011;62267;50.112;8.704;2023-06-26T09:31:16;11.00;;;9.63;;
1262;SDS011;62267;50.112;8.704;2023-06-26T09:34:05;10.40;;;9.43;;
1262;SDS011;62267;50.112;8.704;2023-06-26T09:36:33;11.00;;;9.90;;
1262;SDS011;62267;50.112;8.704;2023-06-26T09:39:06;10.30;;;9.23;;
1262;SDS011;62267;50.112;8.704;2023-06-26T09:41:38;11.00;;;9.97;;
1262;SDS011;62267;50.112;8.704;2023-06-26T09:44:05;10.70;;;9.20;;
1262;SDS011;62267;50.112;8.704;2023-06-26T09:46:34;10.73;;;9.83;;
1262;SDS011;62267;50.112;8.704;2023-06-26T09:49:02;10.60;;;9.33;;
1262;SDS011;62267;50.112;8.704;2023-06-26T09:51:36;10.90;;;9.90;;
1262;SDS011;62267;50.112;8.704;2023-06-26T09:54:04;10.03;;;9.00;;
1262;SDS011;62267;50.112;8.704;2023-06-26T09:56:31;10.10;;;9.20;;
1262;SDS011;62267;50.112;8.704;2023-06-26T09:59:00;10.20;;;9.20;;
1262;SDS011;62267;50.112;8.704;2023-06-26T10:01:28;9.90;;;8.87;;
1262;SDS011;62267;50.112;8.704;2023-06-26T10:03:56;9.50;;;8.70;;
1262;SDS011;62267;50.112;8.704;2023-06-26T10:06:34;9.60;;;8.80;;
1262;SDS011;62267;50.112;8.704;2023-06-26T10:09:04;11.50;;;9.90;;
1262;SDS011;62267;50.112;8.704;2023-06-26T10:11:37;10.53;;;9.53;;
1262;SDS011;62267;50.112;8.704;2023-06-26T10:14:07;10.70;;;9.70;;
1262;SDS011;62267;50.112;8.704;2023-06-26T10:16:44;10.10;;;9.27;;
1262;SDS011;62267;50.112;8.704;2023-06-26T10:19:12;9.20;;;8.30;;
1262;SDS011;62267;50.112;8.704;2023-06-26T10:21:42;9.53;;;8.70;;
1262;SDS011;62267;50.112;8.704;2023-06-26T10:24:10;10.30;;;9.30;;
1262;SDS011;62267;50.112;8.704;2023-06-26T10:26:42;9.97;;;9.17;;
1262;SDS011;62267;50.112;8.704;2023-06-26T10:29:10;9.97;;;9.07;;
1262;SDS011;62267;50.112;8.704;2023-06-26T10:31:41;14.70;;;9.00;;
1262;SDS011;62267;50.112;8.704;2023-06-26T10:34:09;10.33;;;9.33;;
1262;SDS011;62267;50.112;8.704;2023-06-26T10:36:36;12.33;;;9.03;;
1262;SDS011;62267;50.112;8.704;2023-06-26T10:39:05;9.77;;;8.33;;
1262;SDS011;62267;50.112;8.704;2023-06-26T10:41:36;9.57;;;8.53;;
1262;SDS011;62267;50.112;8.704;2023-06-26T10:44:13;8.30;;;7.53;;
1262;SDS011;62267;50.112;8.704;2023-06-26T10:46:55;10.50;;;8.77;;
1262;SDS011;62267;50.112;8.704;2023-06-26T10:49:25;9.13;;;8.30;;
1262;SDS011;62267;50.112;8.704;2023-06-26T10:51:52;9.33;;;8.40;;
1262;SDS011;62267;50.112;8.704;2023-06-26T10:54:22;9.23;;;8.53;;
1262;SDS011;62267;50.112;8.704;2023-06-26T10:56:49;12.90;;;8.60;;
1262;SDS011;62267;50.112;8.704;2023-06-26T10:59:21;10.37;;;8.73;;
1262;SDS011;62267;50.112;8.704;2023-06-26T11:01:56;8.27;;;7.40;;
1262;SDS011;62267;50.112;8.704;2023-06-26T11:04:39;9.57;;;8.57;;
1262;SDS011;62267;50.112;8.704;2023-06-26T11:07:14;8.40;;;7.60;;
1262;SDS011;62267;50.112;8.704;2023-06-26T11:12:43;9.50;;;8.57;;
1262;SDS011;62267;50.112;8.704;2023-06-26T11:15:11;9.67;;;8.77;;
1262;SDS011;62267;50.112;8.704;2023-06-26T11:17:39;10.63;;;9.00;;
1262;SDS011;62267;50.112;8.704;2023-06-26T11:20:13;9.30;;;8.40;;
1262;SDS011;62267;50.112;8.704;2023-06-26T11:22:42;9.00;;;8.20;;
1262;SDS011;62267;50.112;8.704;2023-06-26T11:25:10;10.80;;;8.60;;
1262;SDS011;62267;50.112;8.704;2023-06-26T11:30:08;9.33;;;8.43;;
1262;SDS011;62267;50.112;8.704;2023-06-26T11:32:36;10.53;;;9.43;;
1262;SDS011;62267;50.112;8.704;2023-06-26T11:35:04;9.10;;;8.20;;
1262;SDS011;62267;50.112;8.704;2023-06-26T11:37:32;10.13;;;9.23;;
1262;SDS011;62267;50.112;8.704;2023-06-26T11:40:00;8.93;;;8.13;;
1262;SDS011;62267;50.112;8.704;2023-06-26T11:42:42;9.50;;;8.70;;
1262;SDS011;62267;50.112;8.704;2023-06-26T11:45:10;10.50;;;9.60;;
1262;SDS011;62267;50.112;8.704;2023-06-26T11:47:38;10.37;;;9.37;;
1262;SDS011;62267;50.112;8.704;2023-06-26T11:50:05;9.73;;;8.90;;
1262;SDS011;62267;50.112;8.704;2023-06-26T11:52:33;11.70;;;9.53;;
1262;SDS011;62267;50.112;8.704;2023-06-26T11:55:00;10.97;;;9.83;;
1262;SDS011;62267;50.112;8.704;2023-06-26T11:57:28;10.27;;;9.30;;
1262;SDS011;62267;50.112;8.704;2023-06-26T11:59:57;12.20;;;10.13;;
1262;SDS011;62267;50.112;8.704;2023-06-26T12:02:24;8.97;;;8.07;;
1262;SDS011;62267;50.112;8.704;2023-06-26T12:04:51;9.73;;;8.83;;
1262;SDS011;62267;50.112;8.704;2023-06-26T12:07:19;9.17;;;8.27;;
1262;SDS011;62267;50.112;8.704;2023-06-26T12:09:46;9.40;;;8.60;;
1262;SDS011;62267;50.112;8.704;2023-06-26T12:12:16;9.27;;;8.40;;
1262;SDS011;62267;50.112;8.704;2023-06-26T12:14:43;10.20;;;9.30;;
1262;SDS011;62267;50.112;8.704;2023-06-26T12:17:11;9.53;;;8.60;;
1262;SDS011;62267;50.112;8.704;2023-06-26T12:19:42;10.33;;;9.33;;
1262;SDS011;62267;50.112;8.704;2023-06-26T12:22:10;10.43;;;9.43;;
1262;SDS011;62267;50.112;8.704;2023-06-26T12:24:38;9.73;;;8.90;;
1262;SDS011;62267;50.112;8.704;2023-06-26T12:27:09;9.67;;;8.77;;
1262;SDS011;62267;50.112;8.704;2023-06-26T12:29:38;12.20;;;8.67;;
1262;SDS011;62267;50.112;8.704;2023-06-26T12:32:10;10.03;;;9.13;;
1262;SDS011;62267;50.112;8.704;2023-06-26T12:34:38;9.97;;;8.23;;
1262;SDS011;62267;50.112;8.704;2023-06-26T12:37:09;10.90;;;8.30;;
1262;SDS011;62267;50.112;8.704;2023-06-26T12:42:17;9.50;;;8.10;;
1262;SDS011;62267;50.112;8.704;2023-06-26T12:44:45;9.37;;;8.47;;
1262;SDS011;62267;50.112;8.704;2023-06-26T12:47:13;9.83;;;8.60;;
1262;SDS011;62267;50.112;8.704;2023-06-26T12:49:42;9.20;;;8.30;;
1262;SDS011;62267;50.112;8.704;2023-06-26T12:52:13;9.50;;;8.13;;
1262;SDS011;62267;50.112;8.704;2023-06-26T12:54:42;9.20;;;8.37;;
1262;SDS011;62267;50.112;8.704;2023-06-26T12:57:10;8.70;;;7.90;;
1262;SDS011;62267;50.112;8.704;2023-06-26T12:59:41;10.50;;;9.00;;
1262;SDS011;62267;50.112;8.704;2023-06-26T13:02:08;8.70;;;7.83;;
1262;SDS011;62267;50.112;8.704;2023-06-26T13:04:37;9.27;;;8.37;;
1262;SDS011;62267;50.112;8.704;2023-06-26T13:07:06;9.90;;;8.87;;
1262;SDS011;62267;50.112;8.704;2023-06-26T13:09:34;9.43;;;8.53;;
1262;SDS011;62267;50.112;8.704;2023-06-26T13:12:01;9.37;;;8.40;;
1262;SDS011;62267;50.112;8.704;2023-06-26T13:14:30;9.97;;;9.03;;
1262;SDS011;62267;50.112;8.704;2023-06-26T13:16:57;10.10;;;9.00;;
1262;SDS011;62267;50.112;8.704;2023-06-26T13:19:24;11.10;;;8.70;;
1262;SDS011;62267;50.112;8.704;2023-06-26T13:21:52;22.23;;;20.03;;
1262;SDS011;62267;50.112;8.704;2023-06-26T13:24:20;8.80;;;8.00;;
1262;SDS011;62267;50.112;8.704;2023-06-26T13:26:47;8.57;;;7.77;;
1262;SDS011;62267;50.112;8.704;2023-06-26T13:29:14;9.40;;;8.40;;
1262;SDS011;62267;50.112;8.704;2023-06-26T13:31:42;9.20;;;8.33;;
1262;SDS011;62267;50.112;8.704;2023-06-26T13:34:09;10.27;;;8.10;;
1262;SDS011;62267;50.112;8.704;2023-06-26T13:36:46;8.80;;;7.90;;
1262;SDS011;62267;50.112;8.704;2023-06-26T13:39:13;8.93;;;8.07;;
1262;SDS011;62267;50.112;8.704;2023-06-26T13:41:40;8.60;;;7.40;;
1262;SDS011;62267;50.112;8.704;2023-06-26T13:44:07;9.40;;;8.50;;
1262;SDS011;62267;50.112;8.704;2023-06-26T13:46:55;10.13;;;7.50;;
1262;SDS011;62267;50.112;8.704;2023-06-26T13:49:23;9.87;;;8.47;;
1262;SDS011;62267;50.112;8.704;2023-06-26T13:51:51;9.00;;;7.33;;
1262;SDS011;62267;50.112;8.704;2023-06-26T13:54:19;7.77;;;7.00;;
1262;SDS011;62267;50.112;8.704;2023-06-26T13:56:46;9.27;;;7.83;;
1262;SDS011;62267;50.112;8.704;2023-06-26T13:59:14;7.70;;;7.00;;
1262;SDS011;62267;50.112;8.704;2023-06-26T14:01:41;7.27;;;6.60;;
1262;SDS011;62267;50.112;8.704;2023-06-26T14:04:10;7.00;;;6.30;;
1262;SDS011;62267;50.112;8.704;2023-06-26T14:06:37;7.00;;;6.30;;
1262;SDS011;62267;50.112;8.704;2023-06-26T14:09:04;6.43;;;5.90;;
1262;SDS011;62267;50.112;8.704;2023-06-26T14:11:33;7.00;;;6.30;;
1262;SDS011;62267;50.112;8.704;2023-06-26T14:14:01;6.83;;;6.20;;
1262;SDS011;62267;50.112;8.704;2023-06-26T14:16:29;6.90;;;6.20;;
1262;SDS011;62267;50.112;8.704;2023-06-26T14:18:56;5.40;;;4.90;;
1262;SDS011;62267;50.112;8.704;2023-06-26T14:21:23;6.97;;;6.47;;
1262;SDS011;62267;50.112;8.704;2023-06-26T14:23:51;6.90;;;5.80;;
1262;SDS011;62267;50.112;8.704;2023-06-26T14:26:18;6.13;;;5.60;;
1262;SDS011;62267;50.112;8.704;2023-06-26T14:28:45;6.17;;;5.40;;
1262;SDS011;62267;50.112;8.704;2023-06-26T14:31:15;5.77;;;5.27;;
1262;SDS011;62267;50.112;8.704;2023-06-26T14:33:42;5.90;;;5.40;;
1262;SDS011;62267;50.112;8.704;2023-06-26T14:36:09;8.03;;;7.17;;
1262;SDS011;62267;50.112;8.704;2023-06-26T14:38:37;6.13;;;5.53;;
1262;SDS011;62267;50.112;8.704;2023-06-26T14:41:04;5.40;;;4.90;;
1262;SDS011;62267;50.112;8.704;2023-06-26T14:43:32;6.83;;;5.30;;
1262;SDS011;62267;50.112;8.704;2023-06-26T14:46:01;7.37;;;5.87;;
1262;SDS011;62267;50.112;8.704;2023-06-26T14:48:30;6.57;;;5.83;;
1262;SDS011;62267;50.112;8.704;2023-06-26T14:50:57;7.73;;;5.70;;
1262;SDS011;62267;50.112;8.704;2023-06-26T14:53:26;5.67;;;5.13;;
1262;SDS011;62267;50.112;8.704;2023-06-26T14:55:53;6.40;;;5.80;;
1262;SDS011;62267;50.112;8.704;2023-06-26T14:58:21;5.60;;;4.97;;
1262;SDS011;62267;50.112;8.704;2023-06-26T15:00:49;6.13;;;5.53;;
1262;SDS011;62267;50.112;8.704;2023-06-26T15:03:16;4.63;;;4.20;;
1262;SDS011;62267;50.112;8.704;2023-06-26T15:05:43;8.13;;;4.20;;
1262;SDS011;62267;50.112;8.704;2023-06-26T15:08:11;5.23;;;4.13;;
1262;SDS011;62267;50.112;8.704;2023-06-26T15:10:38;7.37;;;5.80;;
1262;SDS011;62267;50.112;8.704;2023-06-26T15:13:05;4.90;;;3.50;;